Time;durP1;ratioP1;P1;durP2;ratioP2;P2;SDS_P1;SDS_P2;PMS_P1;PMS_P2;Temp;Humidity;BMP_temperature;BMP_pressure;BME280_temperature;BME280_humidity;BME280_pressure;Samples;Min_cycle;Max_cycle;Signal;HPM_P1;HPM_P2
2023/03/16 00:02:03;;;;;;;4.65;2.00;;;4.70;57.60;;;;;;5096034;28;20116;-78
2023/03/16 00:04:30;;;;;;;4.63;2.10;;;4.70;57.70;;;;;;5079436;28;20045;-78
2023/03/16 00:06:56;;;;;;;6.13;2.40;;;4.80;57.80;;;;;;5079238;28;20043;-78
2023/03/16 00:09:29;;;;;;;7.93;2.33;;;4.80;57.90;;;;;;5062399;28;20039;-79
2023/03/16 00:11:58;;;;;;;5.43;2.25;;;4.80;57.90;;;;;;5067393;27;20046;-78
2023/03/16 00:14:25;;;;;;;6.75;2.28;;;4.80;58.00;;;;;;5079932;28;20379;-79
2023/03/16 00:16:50;;;;;;;4.95;2.17;;;4.80;58.10;;;;;;5079227;28;20118;-79
2023/03/16 00:19:16;;;;;;;5.47;2.22;;;4.90;58.20;;;;;;5096260;28;20078;-79
2023/03/16 00:21:42;;;;;;;6.32;2.10;;;4.90;58.10;;;;;;5096006;28;20096;-79
2023/03/16 00:24:08;;;;;;;6.05;2.47;;;4.90;58.00;;;;;;5088921;28;20067;-79
2023/03/16 00:26:34;;;;;;;7.78;2.45;;;4.90;57.90;;;;;;5092438;28;20157;-79
2023/03/16 00:29:00;;;;;;;6.28;2.47;;;4.90;57.90;;;;;;5086480;27;20055;-79
2023/03/16 00:31:26;;;;;;;5.50;2.45;;;5.20;58.20;;;;;;5099333;27;20402;-79
2023/03/16 00:33:52;;;;;;;7.85;2.28;;;4.90;58.20;;;;;;5087985;27;20058;-78
2023/03/16 00:36:17;;;;;;;4.15;2.63;;;5.00;58.10;;;;;;5106728;27;20039;-78
2023/03/16 00:38:43;;;;;;;4.80;2.55;;;5.10;58.20;;;;;;5072573;28;20095;-78
2023/03/16 00:41:13;;;;;;;4.90;2.22;;;4.90;58.10;;;;;;5069538;28;20047;-78
2023/03/16 00:43:40;;;;;;;10.07;2.85;;;5.00;58.30;;;;;;5074823;28;20126;-78
2023/03/16 00:46:11;;;;;;;5.90;2.38;;;5.00;58.40;;;;;;5092672;28;20040;-78
2023/03/16 00:48:38;;;;;;;5.18;2.50;;;5.00;58.40;;;;;;5092323;28;20434;-79
2023/03/16 00:51:07;;;;;;;7.18;2.70;;;5.00;58.40;;;;;;5075935;28;20080;-79
2023/03/16 00:53:34;;;;;;;6.80;2.70;;;5.00;58.40;;;;;;5092217;28;20035;-79
2023/03/16 00:56:03;;;;;;;5.65;2.60;;;5.10;58.40;;;;;;5077212;28;20040;-79
2023/03/16 00:58:34;;;;;;;5.18;2.75;;;5.10;58.20;;;;;;5091691;28;20115;-79
2023/03/16 01:01:13;;;;;;;4.75;2.40;;;5.00;58.40;;;;;;5075066;28;20171;-79
2023/03/16 01:03:39;;;;;;;7.40;3.58;;;5.10;58.10;;;;;;5095651;28;20039;-79
2023/03/16 01:06:11;;;;;;;5.35;2.88;;;5.10;58.10;;;;;;5078706;28;20505;-78
2023/03/16 01:08:37;;;;;;;4.90;2.50;;;5.10;58.20;;;;;;5078400;28;20479;-78
2023/03/16 01:11:05;;;;;;;4.28;2.40;;;5.10;58.20;;;;;;5078279;28;20494;-79
2023/03/16 01:13:31;;;;;;;4.88;2.42;;;5.10;58.20;;;;;;5078587;28;20092;-79
2023/03/16 01:15:58;;;;;;;5.53;2.65;;;5.10;58.60;;;;;;5095427;28;20036;-78
2023/03/16 01:18:24;;;;;;;5.78;2.42;;;5.10;58.20;;;;;;5079160;28;20036;-78
2023/03/16 01:20:50;;;;;;;4.93;2.67;;;5.10;58.30;;;;;;5095748;28;20047;-78
2023/03/16 01:23:17;;;;;;;8.60;3.08;;;5.00;58.30;;;;;;5107361;28;20384;-78
2023/03/16 01:25:43;;;;;;;7.68;2.72;;;5.10;58.40;;;;;;5094703;28;20059;-78
2023/03/16 01:28:09;;;;;;;7.22;2.50;;;5.00;58.50;;;;;;5078978;28;20479;-78
2023/03/16 01:30:34;;;;;;;7.28;2.90;;;5.00;58.50;;;;;;5095479;28;20059;-78
2023/03/16 01:33:00;;;;;;;5.50;2.47;;;5.30;58.70;;;;;;5095537;28;20039;-79
2023/03/16 01:35:26;;;;;;;8.15;3.17;;;5.00;58.80;;;;;;5112351;28;20476;-79
2023/03/16 01:37:52;;;;;;;4.30;2.63;;;5.00;58.90;;;;;;5095477;28;20040;-78
2023/03/16 01:40:18;;;;;;;5.30;3.08;;;5.00;58.90;;;;;;5095567;28;20044;-79
2023/03/16 01:42:49;;;;;;;6.40;2.85;;;5.00;58.90;;;;;;5078648;28;20127;-79
2023/03/16 01:45:52;;;;;;;5.10;2.58;;;5.00;59.10;;;;;;5131797;27;20039;-79
2023/03/16 01:48:20;;;;;;;7.68;3.42;;;5.00;59.20;;;;;;5098835;28;20070;-78
2023/03/16 01:50:46;;;;;;;6.32;3.03;;;5.00;59.20;;;;;;5065551;28;20547;-78
2023/03/16 01:53:12;;;;;;;5.38;2.97;;;4.90;59.20;;;;;;5081758;28;20046;-79
2023/03/16 01:55:40;;;;;;;6.70;3.30;;;5.00;59.30;;;;;;5097962;28;20126;-78
2023/03/16 01:58:05;;;;;;;6.97;3.53;;;4.90;59.20;;;;;;5070447;27;20031;-79
2023/03/16 02:00:32;;;;;;;4.97;3.25;;;5.00;59.30;;;;;;5118947;27;20043;-79
2023/03/16 02:03:09;;;;;;;5.40;3.05;;;5.00;59.30;;;;;;5067341;28;20491;-78
2023/03/16 02:05:38;;;;;;;4.25;2.63;;;5.00;59.30;;;;;;5096147;28;20066;-79
2023/03/16 02:08:05;;;;;;;7.57;3.13;;;5.00;59.30;;;;;;5132409;27;20036;-78
2023/03/16 02:10:32;;;;;;;7.03;3.25;;;5.00;59.30;;;;;;5081441;28;20071;-79
2023/03/16 02:12:58;;;;;;;7.65;3.72;;;5.00;59.50;;;;;;5098137;28;20047;-79
2023/03/16 02:15:26;;;;;;;4.10;3.00;;;5.00;59.50;;;;;;5094795;28;20118;-78
2023/03/16 02:17:52;;;;;;;8.05;3.42;;;5.00;59.50;;;;;;5083053;28;20043;-78
2023/03/16 02:20:23;;;;;;;5.88;3.22;;;5.00;59.50;;;;;;5096659;28;20044;-79
2023/03/16 02:22:54;;;;;;;7.55;3.53;;;5.00;59.70;;;;;;5102007;28;20050;-79
2023/03/16 02:25:36;;;;;;;6.80;3.75;;;5.20;59.90;;;;;;5081449;28;20039;-78
2023/03/16 02:28:09;;;;;;;5.57;3.28;;;5.00;59.70;;;;;;5081152;28;20039;-79
2023/03/16 02:30:35;;;;;;;7.47;3.92;;;5.00;59.70;;;;;;5080730;28;20406;-78
2023/03/16 02:33:03;;;;;;;7.13;3.33;;;5.10;59.90;;;;;;5080913;28;20159;-78
2023/03/16 02:35:30;;;;;;;5.38;3.60;;;5.10;59.90;;;;;;5080434;28;20039;-78
2023/03/16 02:37:56;;;;;;;7.43;3.55;;;5.10;59.90;;;;;;5063670;28;20344;-78
2023/03/16 02:40:31;;;;;;;6.68;3.92;;;5.10;60.10;;;;;;5061018;28;20032;-78
2023/03/16 02:43:06;;;;;;;6.72;3.72;;;5.10;60.00;;;;;;5061022;28;20459;-78
2023/03/16 02:45:41;;;;;;;8.88;3.88;;;5.20;59.80;;;;;;5060722;28;20123;-79
2023/03/16 02:48:13;;;;;;;7.03;3.35;;;5.20;59.80;;;;;;5077175;28;20070;-78
2023/03/16 02:50:47;;;;;;;7.25;3.58;;;5.20;59.80;;;;;;5077143;28;20040;-78
2023/03/16 02:53:13;;;;;;;7.97;4.20;;;5.20;59.90;;;;;;5077411;28;20435;-79
2023/03/16 02:55:39;;;;;;;7.50;4.05;;;5.20;59.90;;;;;;5095396;28;20086;-79
2023/03/16 02:58:04;;;;;;;8.30;3.88;;;5.20;59.90;;;;;;5093910;28;20071;-78
2023/03/16 03:00:31;;;;;;;7.25;3.80;;;5.20;60.00;;;;;;5078995;28;20391;-78
2023/03/16 03:02:57;;;;;;;5.50;3.67;;;5.30;59.90;;;;;;5078227;28;20039;-78
2023/03/16 03:05:23;;;;;;;5.72;3.80;;;5.30;59.90;;;;;;5094194;28;20048;-78
2023/03/16 03:07:50;;;;;;;5.53;3.50;;;5.30;59.90;;;;;;5076942;28;20040;-78
2023/03/16 03:10:16;;;;;;;7.63;3.75;;;5.30;60.00;;;;;;5027272;28;20039;-78
2023/03/16 03:12:41;;;;;;;7.35;4.20;;;5.30;60.20;;;;;;5055995;27;20114;-78
2023/03/16 03:15:08;;;;;;;7.25;3.63;;;5.40;60.20;;;;;;5100365;27;20118;-78
2023/03/16 03:17:33;;;;;;;8.57;3.67;;;5.30;60.20;;;;;;5100628;27;20074;-78
2023/03/16 03:20:12;;;;;;;9.18;3.85;;;5.30;60.40;;;;;;5083606;27;20100;-78
2023/03/16 03:22:38;;;;;;;11.68;4.43;;;5.40;60.40;;;;;;5059355;28;20050;-78
2023/03/16 03:25:04;;;;;;;7.82;4.22;;;5.40;60.40;;;;;;5060125;28;20044;-78
2023/03/16 03:27:32;;;;;;;6.05;4.20;;;5.40;60.50;;;;;;5110375;28;20036;-78
2023/03/16 03:29:57;;;;;;;6.82;3.65;;;5.40;60.50;;;;;;5097792;28;20090;-77
2023/03/16 03:32:23;;;;;;;7.43;4.10;;;5.40;60.40;;;;;;5079773;28;20112;-78
2023/03/16 03:34:49;;;;;;;7.30;3.83;;;5.40;60.40;;;;;;5079549;28;20054;-78
2023/03/16 03:37:15;;;;;;;8.75;3.92;;;5.40;60.40;;;;;;5097336;28;20040;-77
2023/03/16 03:39:40;;;;;;;8.32;4.18;;;5.40;60.70;;;;;;5092808;28;20479;-78
2023/03/16 03:42:06;;;;;;;8.55;4.55;;;5.40;60.70;;;;;;5079687;28;20054;-78
2023/03/16 03:44:36;;;;;;;7.93;4.40;;;5.40;60.70;;;;;;5085990;28;20043;-77
2023/03/16 03:47:02;;;;;;;6.22;4.05;;;5.50;60.80;;;;;;5079879;28;20039;-79
2023/03/16 03:49:28;;;;;;;9.10;4.53;;;5.40;60.80;;;;;;5062929;28;20047;-78
2023/03/16 03:51:55;;;;;;;6.97;4.13;;;5.50;61.00;;;;;;5043095;28;20044;-78
2023/03/16 03:54:21;;;;;;;7.13;4.22;;;5.40;61.00;;;;;;5109909;28;20162;-78
2023/03/16 03:56:47;;;;;;;8.90;4.85;;;5.40;61.10;;;;;;5076703;28;20399;-79
2023/03/16 03:59:12;;;;;;;7.88;4.65;;;5.40;61.10;;;;;;5076194;28;20047;-78
2023/03/16 04:01:38;;;;;;;7.53;4.78;;;5.50;61.20;;;;;;5075909;28;20098;-78
2023/03/16 04:04:04;;;;;;;7.75;5.32;;;5.50;61.30;;;;;;5097162;28;20035;-78
2023/03/16 04:06:30;;;;;;;7.68;4.95;;;5.40;61.20;;;;;;5096122;28;20039;-78
2023/03/16 04:08:56;;;;;;;7.93;5.20;;;5.40;61.20;;;;;;5079322;28;20399;-78
2023/03/16 04:11:21;;;;;;;8.90;4.93;;;5.40;61.20;;;;;;5078883;28;20040;-78
2023/03/16 04:13:50;;;;;;;8.82;4.90;;;5.40;61.30;;;;;;5095738;28;20043;-78
2023/03/16 04:16:16;;;;;;;8.73;5.15;;;5.50;61.30;;;;;;5079558;28;20032;-78
2023/03/16 04:18:43;;;;;;;14.45;5.20;;;5.40;61.20;;;;;;5079299;28;20391;-78
2023/03/16 04:21:14;;;;;;;7.82;4.78;;;5.40;61.40;;;;;;5096422;28;20481;-78
2023/03/16 04:23:41;;;;;;;8.57;4.57;;;5.40;61.50;;;;;;5096151;28;20560;-78
2023/03/16 04:26:07;;;;;;;8.40;5.03;;;5.40;61.50;;;;;;5095945;28;20054;-78
2023/03/16 04:28:32;;;;;;;9.07;4.90;;;5.40;61.60;;;;;;5111963;28;20379;-77
2023/03/16 04:31:04;;;;;;;10.35;5.15;;;5.30;61.60;;;;;;5095688;28;20425;-77
2023/03/16 04:33:31;;;;;;;8.93;4.63;;;5.40;61.70;;;;;;5078630;28;20043;-78
2023/03/16 04:35:57;;;;;;;8.93;5.28;;;5.40;61.80;;;;;;5058690;28;20040;-78
2023/03/16 04:38:22;;;;;;;8.20;5.05;;;5.40;61.80;;;;;;5078740;28;20040;-78
2023/03/16 04:40:48;;;;;;;8.98;5.30;;;5.40;61.90;;;;;;5062770;28;20047;-78
2023/03/16 04:43:14;;;;;;;9.70;5.25;;;5.40;61.90;;;;;;5063246;28;20040;-77
2023/03/16 04:45:40;;;;;;;10.70;4.82;;;5.30;62.00;;;;;;5062066;28;20036;-78
2023/03/16 04:48:06;;;;;;;7.50;4.82;;;5.40;62.00;;;;;;5080665;28;20109;-77
2023/03/16 04:50:32;;;;;;;8.27;4.88;;;5.40;61.90;;;;;;5082185;28;20517;-77
2023/03/16 04:52:57;;;;;;;9.77;5.03;;;5.30;62.00;;;;;;5098830;28;20079;-77
2023/03/16 04:55:23;;;;;;;8.50;4.88;;;5.40;62.40;;;;;;5102379;28;20044;-78
2023/03/16 04:57:49;;;;;;;7.35;4.75;;;5.40;62.50;;;;;;5078773;28;20043;-77
2023/03/16 05:00:18;;;;;;;9.35;4.60;;;5.30;62.40;;;;;;5080705;28;20043;-78
2023/03/16 05:02:45;;;;;;;10.20;5.05;;;5.40;62.60;;;;;;5100043;28;20497;-77
2023/03/16 05:05:10;;;;;;;8.38;5.25;;;5.40;62.60;;;;;;5099835;28;20044;-78
2023/03/16 05:07:36;;;;;;;7.05;4.82;;;5.40;62.70;;;;;;5049411;28;20402;-77
2023/03/16 05:10:02;;;;;;;9.40;5.68;;;5.40;62.70;;;;;;5089740;28;20035;-78
2023/03/16 05:12:28;;;;;;;9.85;5.40;;;5.40;63.00;;;;;;5089511;28;20506;-78
2023/03/16 05:14:54;;;;;;;9.23;5.18;;;5.40;63.10;;;;;;5090101;28;20039;-77
2023/03/16 05:17:21;;;;;;;8.30;5.10;;;5.40;63.20;;;;;;5088044;28;20043;-78
2023/03/16 05:19:47;;;;;;;9.43;5.45;;;5.40;63.20;;;;;;5083735;28;20479;-78
2023/03/16 05:22:12;;;;;;;8.95;5.57;;;5.50;63.40;;;;;;5094878;28;20038;-78
2023/03/16 05:24:38;;;;;;;7.55;5.63;;;5.40;63.40;;;;;;5117553;28;20047;-78
2023/03/16 05:27:04;;;;;;;10.70;6.03;;;5.40;63.50;;;;;;5116833;28;20079;-77
2023/03/16 05:29:33;;;;;;;9.88;5.43;;;5.40;63.50;;;;;;5092606;27;20419;-78
2023/03/16 05:31:59;;;;;;;7.88;5.20;;;5.40;63.70;;;;;;5120066;27;20043;-78
2023/03/16 05:34:26;;;;;;;7.80;4.85;;;5.40;63.60;;;;;;5085388;28;20092;-78
2023/03/16 05:36:51;;;;;;;8.18;5.30;;;5.50;63.80;;;;;;5098838;28;20036;-78
2023/03/16 05:39:17;;;;;;;10.32;5.50;;;5.40;63.80;;;;;;5099093;28;20101;-79
2023/03/16 05:41:43;;;;;;;11.32;6.10;;;5.40;63.90;;;;;;5100163;28;20046;-77
2023/03/16 05:44:09;;;;;;;8.32;5.15;;;5.40;63.90;;;;;;5099699;28;20047;-77
2023/03/16 05:46:35;;;;;;;8.95;5.25;;;5.40;64.00;;;;;;5081964;28;20043;-78
2023/03/16 05:49:02;;;;;;;8.90;5.20;;;5.40;64.00;;;;;;5098929;28;20044;-78
2023/03/16 05:51:28;;;;;;;8.43;4.93;;;5.40;64.10;;;;;;5082033;28;20580;-78
2023/03/16 05:53:57;;;;;;;8.82;5.53;;;5.40;64.10;;;;;;5081905;28;20031;-78
2023/03/16 05:56:27;;;;;;;8.18;5.07;;;5.50;64.30;;;;;;5098773;28;20046;-78
2023/03/16 05:58:54;;;;;;;10.52;5.18;;;5.40;64.40;;;;;;5065341;28;20142;-78
2023/03/16 06:01:21;;;;;;;12.77;5.60;;;5.40;64.50;;;;;;5061938;28;20068;-77
2023/03/16 06:03:48;;;;;;;9.52;5.25;;;5.40;64.70;;;;;;5077926;28;20036;-78
2023/03/16 06:06:15;;;;;;;9.00;5.43;;;5.40;64.80;;;;;;5081758;28;20040;-77
2023/03/16 06:08:42;;;;;;;9.45;5.88;;;5.40;64.90;;;;;;5081672;28;20039;-78
2023/03/16 06:11:08;;;;;;;9.25;5.85;;;5.40;65.10;;;;;;5080956;28;20040;-77
2023/03/16 06:13:34;;;;;;;8.65;5.40;;;5.30;65.10;;;;;;5088955;28;20035;-78
2023/03/16 06:16:01;;;;;;;9.45;5.40;;;5.30;65.10;;;;;;5098091;28;20036;-77
2023/03/16 06:18:26;;;;;;;8.45;6.05;;;5.40;65.20;;;;;;5081802;28;20032;-78
2023/03/16 06:20:52;;;;;;;9.82;6.10;;;5.30;65.20;;;;;;5132637;27;20096;-79
2023/03/16 06:23:19;;;;;;;6.90;4.85;;;5.30;65.30;;;;;;5098884;27;20624;-79
2023/03/16 06:25:48;;;;;;;8.07;5.13;;;5.30;65.30;;;;;;5081371;28;20047;-79
2023/03/16 06:28:14;;;;;;;7.93;5.45;;;5.30;65.40;;;;;;5100799;28;20077;-79
2023/03/16 06:30:40;;;;;;;8.68;5.35;;;5.30;65.50;;;;;;5097542;28;20056;-78
2023/03/16 06:33:06;;;;;;;9.40;5.63;;;5.30;65.50;;;;;;5081910;27;20040;-77
2023/03/16 06:35:32;;;;;;;8.60;5.65;;;5.50;65.70;;;;;;5079128;27;20054;-78
2023/03/16 06:37:58;;;;;;;7.85;5.28;;;5.40;65.60;;;;;;5084896;28;20028;-78
2023/03/16 06:40:24;;;;;;;7.68;5.38;;;5.40;65.50;;;;;;5093741;28;20155;-78
2023/03/16 06:42:50;;;;;;;10.43;5.82;;;5.50;65.60;;;;;;5080465;28;20088;-77
2023/03/16 06:45:16;;;;;;;7.60;5.03;;;5.40;65.60;;;;;;5080837;28;20036;-77
2023/03/16 06:47:42;;;;;;;6.97;5.55;;;5.40;65.60;;;;;;5097177;28;20097;-77
2023/03/16 06:50:10;;;;;;;10.52;5.38;;;5.40;65.50;;;;;;5060395;28;20127;-78
2023/03/16 06:52:36;;;;;;;9.30;5.22;;;5.40;65.70;;;;;;5083934;28;20031;-77
2023/03/16 06:55:02;;;;;;;9.88;5.53;;;5.40;65.60;;;;;;5097681;28;20037;-77
2023/03/16 06:57:27;;;;;;;8.50;5.65;;;5.40;65.70;;;;;;5097414;28;20035;-77
2023/03/16 06:59:53;;;;;;;10.32;5.95;;;5.40;65.80;;;;;;5097535;28;20039;-78
2023/03/16 07:02:21;;;;;;;7.28;5.03;;;5.50;65.80;;;;;;5114209;28;20449;-77
2023/03/16 07:04:46;;;;;;;7.18;4.95;;;5.40;65.60;;;;;;5114789;27;20119;-77
2023/03/16 07:07:12;;;;;;;7.07;5.30;;;5.50;65.70;;;;;;5083910;28;20114;-78
2023/03/16 07:09:38;;;;;;;7.55;5.07;;;5.50;65.90;;;;;;5114024;28;20512;-77
2023/03/16 07:12:04;;;;;;;9.05;5.45;;;5.50;65.90;;;;;;5097157;28;20036;-77
2023/03/16 07:14:30;;;;;;;8.00;4.63;;;5.50;65.80;;;;;;5097297;28;20036;-77
2023/03/16 07:16:56;;;;;;;7.55;4.50;;;5.50;66.10;;;;;;5079892;28;20036;-78
2023/03/16 07:19:21;;;;;;;8.70;5.22;;;5.50;66.00;;;;;;5063272;28;20045;-77
2023/03/16 07:21:48;;;;;;;9.02;4.80;;;5.60;66.10;;;;;;5068173;27;20043;-78
2023/03/16 07:24:14;;;;;;;11.70;5.30;;;5.60;66.10;;;;;;5079208;28;20050;-78
2023/03/16 07:26:40;;;;;;;9.68;5.22;;;5.60;66.30;;;;;;5080078;28;20043;-78
2023/03/16 07:29:06;;;;;;;8.57;4.78;;;5.60;66.50;;;;;;5046396;28;20073;-78
2023/03/16 07:31:35;;;;;;;6.80;4.88;;;5.70;66.80;;;;;;5094209;28;20079;-79
2023/03/16 07:34:03;;;;;;;7.35;4.57;;;5.70;67.00;;;;;;5063014;28;20047;-78
2023/03/16 07:36:29;;;;;;;9.07;5.72;;;5.70;67.10;;;;;;5096734;28;20032;-79
2023/03/16 07:38:54;;;;;;;9.50;5.75;;;5.70;67.20;;;;;;5079936;28;20036;-78
2023/03/16 07:41:20;;;;;;;9.38;5.22;;;5.70;67.60;;;;;;5079177;28;20099;-78
2023/03/16 07:43:47;;;;;;;7.32;4.60;;;5.70;67.70;;;;;;5094373;28;20043;-78
2023/03/16 07:46:12;;;;;;;9.48;5.60;;;5.70;68.00;;;;;;5075830;28;20043;-80
2023/03/16 07:48:42;;;;;;;5.88;4.60;;;5.50;68.10;;;;;;5076037;28;20040;-77
2023/03/16 07:51:10;;;;;;;8.20;5.78;;;5.70;68.70;;;;;;5092651;28;20073;-79
2023/03/16 07:53:36;;;;;;;7.22;5.28;;;5.80;68.90;;;;;;5076305;28;20742;-80
2023/03/16 07:56:02;;;;;;;10.95;5.05;;;5.80;69.10;;;;;;5080830;28;20114;-80
2023/03/16 07:58:27;;;;;;;7.20;4.80;;;5.70;69.70;;;;;;5096348;28;20031;-79
2023/03/16 08:00:57;;;;;;;9.50;5.15;;;5.80;69.60;;;;;;5130070;27;20038;-77
2023/03/16 08:03:24;;;;;;;8.68;5.00;;;5.80;69.90;;;;;;5079797;28;20047;-77
2023/03/16 08:05:51;;;;;;;7.90;5.15;;;5.70;70.00;;;;;;5095932;28;20036;-80
2023/03/16 08:08:17;;;;;;;8.98;4.70;;;5.70;70.30;;;;;;5062951;28;20134;-77
2023/03/16 08:10:45;;;;;;;6.63;4.70;;;5.70;70.60;;;;;;5062350;28;20492;-79
2023/03/16 08:13:11;;;;;;;8.77;4.85;;;5.80;70.90;;;;;;5079352;28;20491;-80
2023/03/16 08:15:37;;;;;;;8.98;4.47;;;5.80;71.20;;;;;;5079004;28;20061;-80
2023/03/16 08:18:02;;;;;;;8.50;4.95;;;5.70;71.40;;;;;;5087035;28;20059;-78
2023/03/16 08:20:29;;;;;;;8.13;4.60;;;5.80;71.70;;;;;;5075504;28;20059;-80
2023/03/16 08:22:54;;;;;;;7.90;4.82;;;5.80;72.10;;;;;;5075668;28;20127;-78
2023/03/16 08:25:20;;;;;;;7.07;4.90;;;5.80;72.30;;;;;;5092296;28;20510;-78
2023/03/16 08:27:47;;;;;;;7.82;4.45;;;5.70;72.50;;;;;;5067384;28;20035;-77
2023/03/16 08:30:14;;;;;;;10.57;5.63;;;5.70;72.80;;;;;;5078638;28;20544;-78
2023/03/16 08:32:40;;;;;;;7.15;4.43;;;5.70;73.10;;;;;;5078440;28;20036;-78
2023/03/16 08:35:08;;;;;;;12.88;6.10;;;5.70;73.40;;;;;;5095718;28;20035;-78
2023/03/16 08:37:34;;;;;;;7.50;4.93;;;5.70;73.90;;;;;;5078663;28;20474;-78
2023/03/16 08:40:00;;;;;;;7.07;4.88;;;5.70;74.20;;;;;;5078635;28;20065;-78
2023/03/16 08:42:27;;;;;;;8.70;4.93;;;5.70;74.30;;;;;;5078871;28;20040;-78
2023/03/16 08:44:54;;;;;;;9.07;5.00;;;5.70;74.50;;;;;;5079203;28;20444;-78
2023/03/16 08:47:23;;;;;;;8.18;5.07;;;5.70;74.70;;;;;;5095837;28;20043;-78
2023/03/16 08:49:49;;;;;;;9.77;5.07;;;5.80;75.00;;;;;;5078493;28;20043;-78
2023/03/16 08:52:15;;;;;;;9.35;5.43;;;5.80;75.30;;;;;;5078490;28;20092;-78
2023/03/16 08:54:42;;;;;;;9.82;4.82;;;5.80;75.50;;;;;;5078456;28;20058;-78
2023/03/16 08:57:09;;;;;;;8.80;4.93;;;5.70;75.50;;;;;;5112510;28;20036;-79
2023/03/16 08:59:35;;;;;;;8.35;5.20;;;5.80;75.90;;;;;;5095644;28;20144;-78
2023/03/16 09:02:03;;;;;;;7.65;4.70;;;5.80;75.80;;;;;;5078147;28;20039;-78
2023/03/16 09:04:29;;;;;;;7.05;4.63;;;5.80;76.00;;;;;;5045856;28;20126;-78
2023/03/16 09:06:55;;;;;;;8.55;5.40;;;5.80;76.00;;;;;;5078756;28;20040;-78
2023/03/16 09:09:21;;;;;;;7.57;5.15;;;5.80;76.20;;;;;;5095685;28;20405;-79
2023/03/16 09:11:48;;;;;;;7.43;5.15;;;5.80;76.20;;;;;;5078265;28;20163;-79
2023/03/16 09:14:14;;;;;;;7.45;4.38;;;5.80;76.40;;;;;;5061970;28;20123;-78
2023/03/16 09:16:40;;;;;;;8.32;5.18;;;5.80;76.80;;;;;;5078281;28;20122;-78
2023/03/16 09:19:06;;;;;;;8.98;5.32;;;5.90;76.90;;;;;;5061528;28;20123;-78
2023/03/16 09:21:33;;;;;;;8.65;4.68;;;5.90;77.00;;;;;;5078361;28;20038;-79
2023/03/16 09:23:59;;;;;;;7.00;4.85;;;5.90;77.20;;;;;;5078916;28;20394;-79
2023/03/16 09:26:27;;;;;;;8.27;4.85;;;5.90;77.50;;;;;;5061560;28;20038;-79
2023/03/16 09:28:53;;;;;;;10.50;5.20;;;5.90;77.70;;;;;;5061666;28;20079;-79
2023/03/16 09:31:19;;;;;;;8.07;4.78;;;5.90;77.70;;;;;;5060812;28;20075;-79
2023/03/16 09:33:46;;;;;;;7.63;4.30;;;5.90;77.60;;;;;;5094903;28;20104;-79
2023/03/16 09:36:13;;;;;;;8.43;4.13;;;5.90;77.90;;;;;;5061557;28;20074;-78
2023/03/16 09:38:39;;;;;;;9.43;4.93;;;6.00;78.10;;;;;;5095127;28;20039;-79
2023/03/16 09:41:40;;;;;;;10.55;5.05;;;6.00;78.30;;;;;;5078115;28;20078;-79
2023/03/16 09:44:15;;;;;;;7.30;4.95;;;6.00;78.60;;;;;;5095057;28;20087;-79
2023/03/16 09:46:46;;;;;;;8.02;4.50;;;6.00;78.70;;;;;;5080567;28;20360;-79
2023/03/16 09:49:17;;;;;;;12.23;4.90;;;6.00;78.80;;;;;;5100643;28;20114;-78
2023/03/16 09:51:43;;;;;;;8.63;5.07;;;6.00;78.80;;;;;;5083415;28;20044;-78
2023/03/16 09:54:38;;;;;;;6.88;4.32;;;6.00;78.80;;;;;;5100163;28;20131;-79
2023/03/16 09:57:13;;;;;;;9.57;5.35;;;6.00;79.20;;;;;;5083073;28;20035;-78
2023/03/16 09:59:39;;;;;;;8.10;4.38;;;6.10;79.10;;;;;;5067187;28;20032;-79
2023/03/16 10:02:27;;;;;;;8.90;4.78;;;6.00;79.20;;;;;;5081539;28;20465;-78
2023/03/16 10:05:09;;;;;;;7.53;4.40;;;6.00;79.40;;;;;;5097759;28;20070;-78
2023/03/16 10:07:49;;;;;;;11.35;5.45;;;6.10;79.40;;;;;;5097953;28;20126;-77
2023/03/16 10:10:22;;;;;;;8.05;4.30;;;6.10;79.50;;;;;;5081148;28;20046;-78
2023/03/16 10:12:52;;;;;;;11.07;4.20;;;6.10;79.40;;;;;;5081297;28;20032;-78
2023/03/16 10:15:22;;;;;;;8.35;5.20;;;6.20;80.00;;;;;;5081132;28;20044;-78
2023/03/16 10:17:56;;;;;;;10.13;5.15;;;6.20;79.60;;;;;;5081301;28;20039;-78
2023/03/16 10:20:23;;;;;;;11.17;5.03;;;6.20;79.60;;;;;;5081267;28;20123;-78
2023/03/16 10:22:51;;;;;;;7.22;4.57;;;6.20;79.40;;;;;;5097936;28;20047;-78
2023/03/16 10:25:41;;;;;;;8.25;4.68;;;6.30;79.40;;;;;;5098133;28;20062;-78
2023/03/16 10:28:08;;;;;;;7.95;4.50;;;6.30;79.40;;;;;;5132089;27;20127;-78
2023/03/16 10:30:37;;;;;;;7.78;4.57;;;6.30;79.20;;;;;;5080991;28;20456;-78
2023/03/16 10:33:12;;;;;;;9.25;4.43;;;6.40;79.10;;;;;;5077444;28;20055;-78
2023/03/16 10:35:45;;;;;;;;;;;6.40;78.70;;;;;;5078215;28;20050;-78
2023/03/16 10:38:45;;;;;;;8.90;4.45;;;6.50;78.30;;;;;;5077395;28;19920;-78
2023/03/16 10:41:17;;;;;;;7.70;4.53;;;6.50;78.10;;;;;;5096483;28;20118;-78
2023/03/16 10:43:44;;;;;;;7.55;4.57;;;6.50;78.10;;;;;;5097719;28;20360;-78
2023/03/16 10:46:11;;;;;;;7.32;4.75;;;6.60;77.90;;;;;;5080644;28;20046;-78
2023/03/16 10:48:39;;;;;;;10.15;4.60;;;6.60;77.70;;;;;;5080933;28;20040;-77
2023/03/16 10:51:13;;;;;;;9.05;4.30;;;6.70;77.60;;;;;;5080409;28;20119;-78
2023/03/16 10:53:41;;;;;;;;;;;6.80;77.40;;;;;;5081258;28;20119;-78
2023/03/16 10:56:37;;;;;;;9.07;4.57;;;6.70;77.10;;;;;;5097444;28;20379;-78
2023/03/16 10:59:23;;;;;;;8.02;4.32;;;6.80;77.00;;;;;;5046684;28;20048;-78
2023/03/16 11:01:48;;;;;;;8.80;4.43;;;6.90;77.00;;;;;;5096941;28;20371;-78
2023/03/16 11:04:16;;;;;;;7.93;4.43;;;7.00;77.00;;;;;;5097101;28;20051;-78
2023/03/16 11:06:55;;;;;;;11.02;4.55;;;7.00;77.00;;;;;;5079800;28;20075;-78
2023/03/16 11:09:41;;;;;;;8.95;4.35;;;7.10;76.80;;;;;;5080278;28;20123;-78
2023/03/16 11:12:29;;;;;;;8.20;4.57;;;7.20;76.30;;;;;;5063568;28;20075;-78
2023/03/16 11:15:03;;;;;;;12.07;5.05;;;7.20;76.50;;;;;;5065453;28;20035;-78
2023/03/16 11:17:52;;;;;;;9.02;5.38;;;7.20;76.30;;;;;;5096995;28;20036;-78
2023/03/16 11:20:31;;;;;;;9.70;4.18;;;7.40;76.30;;;;;;5096857;28;20028;-78
2023/03/16 11:22:59;;;;;;;7.10;4.40;;;7.40;76.20;;;;;;5079851;28;20055;-78
2023/03/16 11:25:45;;;;;;;7.53;4.05;;;7.50;76.20;;;;;;5079739;28;20118;-78
2023/03/16 11:28:38;;;;;;;8.00;4.03;;;7.60;76.10;;;;;;5079812;28;20083;-78
2023/03/16 11:31:15;;;;;;;8.00;3.97;;;7.70;75.50;;;;;;5079710;28;20066;-78
2023/03/16 11:33:41;;;;;;;8.15;4.28;;;7.70;75.30;;;;;;5096604;28;20043;-78
2023/03/16 11:36:30;;;;;;;6.55;3.42;;;7.80;75.50;;;;;;5096659;28;20043;-78
2023/03/16 11:39:22;;;;;;;8.88;4.57;;;7.90;74.90;;;;;;5130610;27;20525;-78
2023/03/16 11:41:57;;;;;;;7.07;3.70;;;7.90;75.10;;;;;;5088913;28;20495;-78
2023/03/16 11:45:08;;;;;;;6.45;3.80;;;8.00;74.80;;;;;;5110152;28;20047;-78
2023/03/16 11:47:47;;;;;;;7.32;4.55;;;8.20;74.70;;;;;;5016726;28;20059;-78
2023/03/16 11:50:25;;;;;;;5.35;3.63;;;8.30;74.20;;;;;;5075986;28;20044;-78
2023/03/16 11:53:13;;;;;;;5.72;4.00;;;8.40;74.30;;;;;;5059434;28;20032;-78
2023/03/16 11:55:54;;;;;;;7.18;4.05;;;8.50;73.90;;;;;;5108145;28;20039;-78
2023/03/16 11:58:49;;;;;;;7.07;3.50;;;8.50;73.70;;;;;;5079388;28;20390;-79
2023/03/16 12:01:41;;;;;;;6.75;3.97;;;8.60;73.70;;;;;;5092483;28;20445;-78
2023/03/16 12:04:13;;;;;;;5.93;3.72;;;8.80;72.60;;;;;;5079424;28;20391;-78
2023/03/16 12:07:02;;;;;;;6.95;3.65;;;8.80;72.40;;;;;;5079032;28;20047;-79
2023/03/16 12:09:46;;;;;;;6.95;3.50;;;8.90;71.90;;;;;;5061303;28;20055;-78
2023/03/16 12:12:36;;;;;;;7.13;3.42;;;9.00;70.40;;;;;;5095815;28;20035;-78
2023/03/16 12:15:21;;;;;;;5.78;3.25;;;9.10;69.20;;;;;;5078962;28;20047;-79
2023/03/16 12:17:49;;;;;;;;;;;9.10;69.40;;;;;;5079260;28;20501;-78
2023/03/16 12:20:28;;;;;;;6.05;3.60;;;9.10;69.70;;;;;;5078773;28;19915;-78
2023/03/16 12:23:01;;;;;;;6.07;2.80;;;9.20;69.10;;;;;;5078591;28;20126;-78
2023/03/16 12:25:33;;;;;;;7.40;3.65;;;9.20;68.70;;;;;;5078762;28;20395;-78
2023/03/16 12:28:04;;;;;;;7.80;3.80;;;9.20;68.30;;;;;;5078708;28;20643;-78
2023/03/16 12:30:52;;;;;;;5.65;3.03;;;9.30;68.20;;;;;;5095225;28;20123;-78
2023/03/16 12:33:17;;;;;;;5.32;3.10;;;9.30;66.10;;;;;;5095259;28;20051;-78
2023/03/16 12:35:52;;;;;;;6.47;3.13;;;9.30;65.90;;;;;;5078812;28;20077;-79
2023/03/16 12:38:27;;;;;;;;;;;9.30;65.40;;;;;;5095620;28;20047;-77
2023/03/16 12:41:25;;;;;;;6.35;3.45;;;9.30;65.70;;;;;;5095314;28;20002;-78
2023/03/16 12:44:05;;;;;;;5.40;3.10;;;9.30;66.10;;;;;;5078560;28;20547;-78
2023/03/16 12:46:59;;;;;;;8.25;3.63;;;9.30;66.40;;;;;;5078515;28;20669;-78
2023/03/16 12:49:27;;;;;;;5.57;3.08;;;9.40;65.70;;;;;;5078435;28;20040;-78
2023/03/16 12:52:08;;;;;;;5.32;3.33;;;9.40;65.90;;;;;;5095186;28;20048;-78
2023/03/16 12:54:34;;;;;;;9.30;3.55;;;9.40;65.30;;;;;;5078206;28;20032;-78
2023/03/16 12:57:07;;;;;;;6.05;3.28;;;9.40;65.30;;;;;;5111908;28;20160;-78
2023/03/16 12:59:42;;;;;;;6.22;3.30;;;9.50;65.20;;;;;;5074775;28;20035;-78
2023/03/16 13:02:23;;;;;;;6.00;3.17;;;9.50;65.00;;;;;;5098222;28;20069;-78
2023/03/16 13:04:58;;;;;;;4.97;3.15;;;9.50;64.90;;;;;;5086868;28;20043;-78
2023/03/16 13:07:27;;;;;;;5.95;2.92;;;9.50;65.00;;;;;;5095259;28;20123;-77
2023/03/16 13:10:15;;;;;;;6.30;2.95;;;9.60;65.30;;;;;;5078685;28;20518;-78
2023/03/16 13:12:43;;;;;;;7.32;3.30;;;9.70;63.90;;;;;;5077576;28;20131;-77